Time;durP1;ratioP1;P1;durP2;ratioP2;P2;SDS_P1;SDS_P2;PMS_P1;PMS_P2;Temp;Humidity;BMP_temperature;BMP_pressure;BME280_temperature;BME280_humidity;BME280_pressure;Samples;Min_cycle;Max_cycle;Signal;HPM_P1;HPM_P2
2021/08/25 00:01:46;;;;;;;6.00;2.92;;;;;;;;;;5047953;28;20024;-59
2021/08/25 00:04:11;;;;;;;6.30;3.10;;;;;;;;;;5066686;28;20031;-59
2021/08/25 00:06:37;;;;;;;5.82;2.78;;;;;;;;;;5084652;28;20028;-59
2021/08/25 00:09:03;;;;;;;6.35;3.15;;;;;;;;;;5074055;28;20040;-59
2021/08/25 00:11:29;;;;;;;5.47;2.88;;;;;;;;;;5067616;28;20028;-60
2021/08/25 00:13:54;;;;;;;6.78;2.72;;;;;;;;;;5069242;28;20731;-59
2021/08/25 00:16:19;;;;;;;5.32;3.00;;;;;;;;;;5067106;28;20441;-60
2021/08/25 00:18:45;;;;;;;6.55;2.85;;;;;;;;;;5068610;28;20082;-59
2021/08/25 00:21:10;;;;;;;5.97;3.00;;;;;;;;;;5068204;28;20048;-59
2021/08/25 00:23:36;;;;;;;5.90;2.90;;;;;;;;;;5067753;28;20039;-59
2021/08/25 00:26:01;;;;;;;4.70;3.00;;;;;;;;;;5067447;28;20024;-60
2021/08/25 00:28:26;;;;;;;7.95;3.00;;;;;;;;;;5068645;28;20054;-60
2021/08/25 00:30:52;;;;;;;8.98;3.28;;;;;;;;;;5068529;28;20039;-59
2021/08/25 00:33:17;;;;;;;6.07;3.00;;;;;;;;;;5066571;28;20670;-59
2021/08/25 00:35:43;;;;;;;5.10;2.80;;;;;;;;;;5068513;28;20117;-60
2021/08/25 00:38:08;;;;;;;5.35;3.05;;;;;;;;;;5068164;28;20020;-59
2021/08/25 00:40:33;;;;;;;5.03;2.90;;;;;;;;;;5068254;28;20145;-59
2021/08/25 00:43:09;;;;;;;6.07;3.03;;;;;;;;;;5067284;28;20048;-59
2021/08/25 00:45:43;;;;;;;5.43;3.00;;;;;;;;;;5067581;28;21035;-59
2021/08/25 00:48:16;;;;;;;6.25;3.15;;;;;;;;;;5068868;28;20440;-59
2021/08/25 00:50:42;;;;;;;3.85;2.63;;;;;;;;;;5085477;28;20030;-59
2021/08/25 00:53:08;;;;;;;8.65;3.17;;;;;;;;;;5087141;28;20028;-59
2021/08/25 00:55:40;;;;;;;7.85;3.13;;;;;;;;;;5087761;28;20043;-59
2021/08/25 00:58:08;;;;;;;5.82;2.70;;;;;;;;;;5074547;28;20109;-59
2021/08/25 01:00:51;;;;;;;7.05;3.00;;;;;;;;;;5067709;28;20035;-60
2021/08/25 01:03:19;;;;;;;6.97;3.05;;;;;;;;;;5068373;28;20043;-59
2021/08/25 01:05:47;;;;;;;5.90;3.10;;;;;;;;;;5062120;28;20064;-59
2021/08/25 01:08:14;;;;;;;6.35;3.03;;;;;;;;;;5059118;28;20445;-60
2021/08/25 01:10:39;;;;;;;7.68;3.15;;;;;;;;;;5087248;28;20035;-60
2021/08/25 01:13:07;;;;;;;5.72;2.67;;;;;;;;;;5088097;28;20024;-60
2021/08/25 01:15:35;;;;;;;4.93;2.90;;;;;;;;;;5087023;28;20088;-60
2021/08/25 01:18:03;;;;;;;4.57;2.60;;;;;;;;;;5085572;28;20059;-60
2021/08/25 01:20:28;;;;;;;;;;;;;;;;;;5088036;28;20381;-60
2021/08/25 01:22:55;;;;;;;5.38;2.72;;;;;;;;;;5088224;28;19912;-59
2021/08/25 01:25:23;;;;;;;4.90;2.63;;;;;;;;;;5086717;28;20031;-59
2021/08/25 01:28:09;;;;;;;5.45;2.85;;;;;;;;;;5086689;28;20028;-59
2021/08/25 01:30:37;;;;;;;4.95;2.78;;;;;;;;;;5083737;28;20388;-60
2021/08/25 01:33:03;;;;;;;5.15;2.53;;;;;;;;;;5078911;28;20082;-60
2021/08/25 01:35:41;;;;;;;7.07;3.00;;;;;;;;;;5084835;28;20335;-59
2021/08/25 01:38:07;;;;;;;5.13;2.60;;;;;;;;;;5088333;28;20020;-59
2021/08/25 01:40:35;;;;;;;5.78;2.60;;;;;;;;;;5069235;28;20035;-59
2021/08/25 01:43:01;;;;;;;5.82;2.90;;;;;;;;;;5066771;28;20028;-60
2021/08/25 01:45:33;;;;;;;6.43;2.63;;;;;;;;;;5066679;28;20028;-60
2021/08/25 01:47:58;;;;;;;5.53;2.67;;;;;;;;;;5067031;28;20029;-60
2021/08/25 01:50:24;;;;;;;6.10;3.05;;;;;;;;;;5066886;28;20031;-60
2021/08/25 01:52:49;;;;;;;8.18;2.80;;;;;;;;;;5067017;28;20428;-59
2021/08/25 01:55:15;;;;;;;5.28;2.47;;;;;;;;;;5065324;28;20374;-59
2021/08/25 01:57:41;;;;;;;5.90;2.75;;;;;;;;;;5067094;28;20673;-59
2021/08/25 02:00:07;;;;;;;5.22;2.65;;;;;;;;;;5066967;28;20028;-59
2021/08/25 02:02:32;;;;;;;5.85;3.20;;;;;;;;;;5066346;28;20036;-59
2021/08/25 02:04:57;;;;;;;5.00;2.55;;;;;;;;;;5067831;28;20033;-60
2021/08/25 02:07:23;;;;;;;5.18;2.90;;;;;;;;;;5086276;28;20028;-59
2021/08/25 02:09:48;;;;;;;5.97;2.50;;;;;;;;;;5079039;28;20545;-59
2021/08/25 02:12:13;;;;;;;5.20;2.65;;;;;;;;;;5067176;28;20016;-59
2021/08/25 02:14:39;;;;;;;5.25;2.55;;;;;;;;;;5068993;28;20112;-59
2021/08/25 02:17:06;;;;;;;5.53;2.67;;;;;;;;;;5067185;28;20037;-60
2021/08/25 02:19:33;;;;;;;4.88;2.72;;;;;;;;;;5065340;28;20486;-60
2021/08/25 02:21:58;;;;;;;5.07;2.80;;;;;;;;;;5067402;28;20040;-60
2021/08/25 02:24:23;;;;;;;5.70;2.97;;;;;;;;;;5067061;28;20024;-59
2021/08/25 02:26:49;;;;;;;3.83;2.40;;;;;;;;;;5064535;28;20043;-60
2021/08/25 02:29:14;;;;;;;7.07;2.80;;;;;;;;;;5066440;28;20048;-59
2021/08/25 02:31:39;;;;;;;9.00;3.10;;;;;;;;;;5066235;28;20358;-60
2021/08/25 02:34:05;;;;;;;4.68;2.67;;;;;;;;;;5066535;28;20041;-60
2021/08/25 02:36:30;;;;;;;5.82;2.95;;;;;;;;;;5066862;28;20453;-60
2021/08/25 02:38:55;;;;;;;3.95;2.60;;;;;;;;;;5065737;28;20036;-59
2021/08/25 02:41:21;;;;;;;6.70;2.70;;;;;;;;;;5066461;28;20406;-60
2021/08/25 02:43:46;;;;;;;4.93;2.88;;;;;;;;;;5065460;28;20070;-59
2021/08/25 02:46:13;;;;;;;5.68;3.05;;;;;;;;;;5067186;28;20037;-60
2021/08/25 02:48:38;;;;;;;7.93;3.08;;;;;;;;;;5067772;28;20549;-60
2021/08/25 02:51:04;;;;;;;7.57;3.20;;;;;;;;;;5072843;28;20059;-59
2021/08/25 02:53:29;;;;;;;6.93;3.10;;;;;;;;;;5070236;28;20025;-59
2021/08/25 02:55:54;;;;;;;6.93;2.90;;;;;;;;;;5067853;28;20024;-59
2021/08/25 02:58:20;;;;;;;4.72;2.70;;;;;;;;;;5068914;28;20024;-60
2021/08/25 03:00:46;;;;;;;5.10;2.70;;;;;;;;;;5071288;28;20486;-60
2021/08/25 03:03:11;;;;;;;5.53;2.70;;;;;;;;;;5071473;28;20044;-60
2021/08/25 03:05:36;;;;;;;4.78;2.55;;;;;;;;;;5070855;28;20040;-59
2021/08/25 03:08:02;;;;;;;4.57;2.70;;;;;;;;;;5069865;28;20440;-59
2021/08/25 03:10:27;;;;;;;4.00;2.50;;;;;;;;;;5069613;28;20025;-59
2021/08/25 03:12:52;;;;;;;4.43;2.60;;;;;;;;;;5069898;28;20028;-59
2021/08/25 03:15:18;;;;;;;4.55;2.55;;;;;;;;;;5069984;28;20031;-60
2021/08/25 03:17:44;;;;;;;5.18;3.15;;;;;;;;;;5069249;28;20032;-59
2021/08/25 03:20:11;;;;;;;5.70;2.63;;;;;;;;;;5068435;28;20113;-59
2021/08/25 03:22:38;;;;;;;5.68;2.70;;;;;;;;;;5069840;28;20025;-59
2021/08/25 03:25:06;;;;;;;4.73;2.90;;;;;;;;;;5070052;28;20504;-59
2021/08/25 03:27:32;;;;;;;5.63;3.08;;;;;;;;;;5068015;28;20036;-59
2021/08/25 03:29:57;;;;;;;4.70;2.70;;;;;;;;;;5067133;28;20024;-60
2021/08/25 03:32:22;;;;;;;6.13;3.03;;;;;;;;;;5068593;28;20399;-60
2021/08/25 03:34:48;;;;;;;4.50;3.00;;;;;;;;;;5071220;28;20048;-60
2021/08/25 03:37:13;;;;;;;6.47;3.00;;;;;;;;;;5069837;28;20025;-58
2021/08/25 03:39:39;;;;;;;5.43;3.10;;;;;;;;;;5069946;28;20097;-59
2021/08/25 03:42:05;;;;;;;9.15;3.25;;;;;;;;;;5069898;28;20483;-60
2021/08/25 03:44:30;;;;;;;9.65;3.20;;;;;;;;;;5070462;28;20051;-59
2021/08/25 03:46:56;;;;;;;5.07;2.60;;;;;;;;;;5067395;28;20474;-61
2021/08/25 03:49:21;;;;;;;8.65;3.20;;;;;;;;;;5069779;28;20743;-60
2021/08/25 03:51:46;;;;;;;7.13;3.00;;;;;;;;;;5069915;28;20024;-60
2021/08/25 03:54:12;;;;;;;6.15;2.92;;;;;;;;;;5071747;28;20024;-60
2021/08/25 03:56:37;;;;;;;5.13;2.80;;;;;;;;;;5072616;28;20142;-59
2021/08/25 03:59:03;;;;;;;7.65;3.17;;;;;;;;;;5072694;28;20507;-60
2021/08/25 04:01:29;;;;;;;6.75;2.85;;;;;;;;;;5070316;28;20028;-58
2021/08/25 04:03:54;;;;;;;5.82;3.30;;;;;;;;;;5072676;28;20033;-59
2021/08/25 04:06:20;;;;;;;6.70;3.22;;;;;;;;;;5083966;28;20111;-60
2021/08/25 04:08:45;;;;;;;6.75;2.80;;;;;;;;;;5072549;28;20389;-59
2021/08/25 04:11:10;;;;;;;7.40;2.92;;;;;;;;;;5071840;28;20424;-59
2021/08/25 04:13:35;;;;;;;4.10;2.70;;;;;;;;;;5071847;28;20032;-60
2021/08/25 04:16:02;;;;;;;5.95;3.13;;;;;;;;;;5071734;28;20044;-59
2021/08/25 04:18:30;;;;;;;6.90;3.43;;;;;;;;;;5073531;28;20382;-59
2021/08/25 04:20:55;;;;;;;6.35;2.95;;;;;;;;;;5071983;28;20263;-60
2021/08/25 04:23:20;;;;;;;4.70;2.92;;;;;;;;;;5070368;28;20097;-59
2021/08/25 04:25:46;;;;;;;5.32;2.90;;;;;;;;;;5070740;28;20118;-60
2021/08/25 04:28:11;;;;;;;5.72;3.03;;;;;;;;;;5071761;28;20115;-59
2021/08/25 04:30:37;;;;;;;5.70;2.70;;;;;;;;;;5071331;28;20021;-59
2021/08/25 04:33:03;;;;;;;7.40;3.40;;;;;;;;;;5072336;28;20526;-59
2021/08/25 04:35:28;;;;;;;6.90;3.13;;;;;;;;;;5076742;28;20020;-59
2021/08/25 04:37:54;;;;;;;8.55;3.00;;;;;;;;;;5091306;28;20488;-59
2021/08/25 04:40:19;;;;;;;6.05;3.05;;;;;;;;;;5091108;28;20036;-59
2021/08/25 04:42:45;;;;;;;6.65;3.08;;;;;;;;;;5092945;28;20020;-58
2021/08/25 04:45:10;;;;;;;8.68;3.38;;;;;;;;;;5091760;28;20385;-60
2021/08/25 04:47:36;;;;;;;6.15;3.35;;;;;;;;;;5091135;28;20142;-59
2021/08/25 04:50:01;;;;;;;6.45;3.50;;;;;;;;;;5091935;28;20027;-60
2021/08/25 04:52:26;;;;;;;7.20;3.85;;;;;;;;;;5091020;28;20109;-59
2021/08/25 04:54:52;;;;;;;6.20;3.35;;;;;;;;;;5087773;28;20115;-60
2021/08/25 04:57:17;;;;;;;4.63;2.72;;;;;;;;;;5072740;28;20024;-61
2021/08/25 04:59:42;;;;;;;8.00;3.38;;;;;;;;;;5071247;28;20032;-60
2021/08/25 05:02:08;;;;;;;7.45;3.35;;;;;;;;;;5070793;28;20024;-61
2021/08/25 05:04:33;;;;;;;6.65;3.17;;;;;;;;;;5073603;28;20021;-60
2021/08/25 05:06:58;;;;;;;5.57;3.03;;;;;;;;;;5070786;28;20454;-61
2021/08/25 05:09:24;;;;;;;6.13;3.15;;;;;;;;;;5069802;28;20024;-61
2021/08/25 05:11:49;;;;;;;5.78;3.28;;;;;;;;;;5068933;28;20139;-60
2021/08/25 05:14:14;;;;;;;8.98;3.42;;;;;;;;;;5072154;28;20035;-61
2021/08/25 05:16:40;;;;;;;6.30;3.33;;;;;;;;;;5071217;28;20031;-60
2021/08/25 05:19:05;;;;;;;6.93;3.10;;;;;;;;;;5071715;28;20016;-60
2021/08/25 05:21:31;;;;;;;5.50;3.20;;;;;;;;;;5071089;28;20433;-61
2021/08/25 05:23:56;;;;;;;6.78;3.20;;;;;;;;;;5070053;28;20028;-61
2021/08/25 05:26:21;;;;;;;6.97;3.25;;;;;;;;;;5069632;28;20028;-61
2021/08/25 05:28:47;;;;;;;7.68;3.20;;;;;;;;;;5071121;28;20028;-61
2021/08/25 05:31:12;;;;;;;6.28;3.25;;;;;;;;;;5071232;28;20385;-61
2021/08/25 05:33:38;;;;;;;7.10;3.60;;;;;;;;;;5068889;28;20124;-60
2021/08/25 05:36:03;;;;;;;10.68;3.80;;;;;;;;;;5069127;28;20028;-61
2021/08/25 05:38:28;;;;;;;6.40;3.10;;;;;;;;;;5072628;28;20016;-61
2021/08/25 05:40:54;;;;;;;6.22;3.30;;;;;;;;;;5067230;28;20039;-61
2021/08/25 05:43:20;;;;;;;5.40;3.00;;;;;;;;;;5070044;28;20029;-61
2021/08/25 05:45:45;;;;;;;6.67;3.00;;;;;;;;;;5065415;28;20028;-61
2021/08/25 05:48:11;;;;;;;8.38;3.40;;;;;;;;;;5068294;28;20626;-61
2021/08/25 05:50:37;;;;;;;10.13;3.63;;;;;;;;;;5069827;28;20020;-60
2021/08/25 05:53:02;;;;;;;6.55;3.50;;;;;;;;;;5069212;28;20029;-60
2021/08/25 05:55:27;;;;;;;8.45;4.05;;;;;;;;;;5069434;28;20462;-61
2021/08/25 05:57:53;;;;;;;6.63;3.95;;;;;;;;;;5069612;28;20035;-61
2021/08/25 06:00:19;;;;;;;7.75;3.63;;;;;;;;;;5068641;28;20020;-60
2021/08/25 06:02:45;;;;;;;7.88;3.85;;;;;;;;;;5071878;28;20458;-61
2021/08/25 06:05:14;;;;;;;7.07;3.55;;;;;;;;;;5068985;28;20029;-62
2021/08/25 06:07:41;;;;;;;7.82;3.85;;;;;;;;;;5059710;28;20051;-61
2021/08/25 06:10:07;;;;;;;5.65;3.13;;;;;;;;;;5068199;28;20032;-61
2021/08/25 06:12:33;;;;;;;7.68;3.20;;;;;;;;;;5068518;28;20047;-61
2021/08/25 06:14:59;;;;;;;6.97;3.83;;;;;;;;;;5070705;28;20021;-61
2021/08/25 06:17:24;;;;;;;6.53;3.63;;;;;;;;;;5070250;28;20116;-61
2021/08/25 06:19:50;;;;;;;8.85;3.50;;;;;;;;;;5070939;28;20024;-61
2021/08/25 06:22:16;;;;;;;5.53;3.78;;;;;;;;;;5069239;28;20029;-61
2021/08/25 06:24:41;;;;;;;8.88;3.75;;;;;;;;;;5072210;28;20486;-62
2021/08/25 06:27:06;;;;;;;9.43;3.45;;;;;;;;;;5072070;28;20028;-60
2021/08/25 06:29:32;;;;;;;9.07;3.70;;;;;;;;;;5074145;28;20385;-61
2021/08/25 06:31:59;;;;;;;7.00;3.53;;;;;;;;;;5073849;28;20032;-61
2021/08/25 06:34:25;;;;;;;6.32;3.42;;;;;;;;;;5072739;28;20045;-61
2021/08/25 06:36:50;;;;;;;5.32;3.53;;;;;;;;;;5084679;28;20028;-60
2021/08/25 06:39:15;;;;;;;7.82;3.70;;;;;;;;;;5074629;28;20016;-61
2021/08/25 06:41:41;;;;;;;6.80;3.20;;;;;;;;;;5073241;28;20124;-61
2021/08/25 06:44:06;;;;;;;6.47;3.80;;;;;;;;;;5074385;28;20020;-61
2021/08/25 06:46:32;;;;;;;6.82;3.70;;;;;;;;;;5072635;28;20120;-61
2021/08/25 06:48:57;;;;;;;8.90;3.90;;;;;;;;;;5074707;28;20032;-61
2021/08/25 06:51:22;;;;;;;9.05;4.00;;;;;;;;;;5072613;28;20032;-61
2021/08/25 06:53:48;;;;;;;10.25;4.25;;;;;;;;;;5067834;28;20067;-61
2021/08/25 06:56:13;;;;;;;8.10;4.30;;;;;;;;;;5065497;28;20044;-61
2021/08/25 06:58:39;;;;;;;9.23;3.90;;;;;;;;;;5086881;28;20032;-61
2021/08/25 07:01:04;;;;;;;8.25;3.95;;;;;;;;;;5072914;28;20017;-60
2021/08/25 07:03:29;;;;;;;9.82;4.35;;;;;;;;;;5070605;28;20027;-61
2021/08/25 07:05:55;;;;;;;7.60;3.83;;;;;;;;;;5071316;28;20021;-60
2021/08/25 07:08:20;;;;;;;9.90;4.10;;;;;;;;;;5072573;28;20029;-61
2021/08/25 07:10:45;;;;;;;8.07;4.10;;;;;;;;;;5072058;28;20060;-62
2021/08/25 07:13:11;;;;;;;8.27;4.07;;;;;;;;;;5071517;28;20029;-61
2021/08/25 07:15:37;;;;;;;10.07;4.20;;;;;;;;;;5072581;28;20024;-61
2021/08/25 07:18:02;;;;;;;6.95;3.85;;;;;;;;;;5072302;28;20043;-61
2021/08/25 07:20:28;;;;;;;7.05;3.90;;;;;;;;;;5073499;28;20020;-62
2021/08/25 07:22:53;;;;;;;7.18;4.25;;;;;;;;;;5072563;28;20021;-61
2021/08/25 07:25:18;;;;;;;13.57;4.53;;;;;;;;;;5057452;28;20029;-62
2021/08/25 07:27:43;;;;;;;7.70;4.47;;;;;;;;;;5053695;28;20552;-62
2021/08/25 07:30:12;;;;;;;9.68;4.60;;;;;;;;;;5073924;28;20020;-62
2021/08/25 07:32:40;;;;;;;10.65;4.20;;;;;;;;;;5070946;28;20017;-61
2021/08/25 07:35:11;;;;;;;6.82;3.92;;;;;;;;;;5074166;28;20158;-60
2021/08/25 07:37:37;;;;;;;9.23;3.90;;;;;;;;;;5075549;28;20128;-61
2021/08/25 07:40:05;;;;;;;7.93;3.85;;;;;;;;;;5070154;28;20397;-60
2021/08/25 07:42:30;;;;;;;7.80;3.25;;;;;;;;;;5071110;28;20020;-61
2021/08/25 07:44:55;;;;;;;7.00;3.33;;;;;;;;;;5064512;28;20448;-61
2021/08/25 07:47:21;;;;;;;7.57;3.58;;;;;;;;;;5064681;28;20101;-62
2021/08/25 07:49:46;;;;;;;8.25;3.90;;;;;;;;;;5077624;28;20025;-61
2021/08/25 07:52:12;;;;;;;7.35;3.10;;;;;;;;;;5071547;28;20232;-61
2021/08/25 07:54:37;;;;;;;8.02;3.38;;;;;;;;;;5072783;28;20056;-61
2021/08/25 07:57:04;;;;;;;8.00;3.55;;;;;;;;;;5072914;28;20081;-61
2021/08/25 07:59:29;;;;;;;6.95;3.20;;;;;;;;;;5072658;28;20374;-62
2021/08/25 08:01:55;;;;;;;9.10;3.78;;;;;;;;;;5069876;28;20028;-61
2021/08/25 08:04:20;;;;;;;7.57;3.08;;;;;;;;;;5071165;28;20036;-60
2021/08/25 08:06:45;;;;;;;11.00;3.55;;;;;;;;;;5084083;28;20024;-62
2021/08/25 08:09:10;;;;;;;8.82;3.30;;;;;;;;;;5067468;28;20074;-62
2021/08/25 08:11:36;;;;;;;8.35;3.17;;;;;;;;;;5066586;28;20035;-62
2021/08/25 08:14:01;;;;;;;6.63;3.15;;;;;;;;;;5068070;28;20622;-61
2021/08/25 08:16:27;;;;;;;5.97;3.13;;;;;;;;;;5069655;28;20029;-61
2021/08/25 08:19:01;;;;;;;4.60;2.70;;;;;;;;;;5070793;28;20060;-61
2021/08/25 08:21:28;;;;;;;5.82;3.00;;;;;;;;;;5067123;28;20553;-63
2021/08/25 08:23:54;;;;;;;8.00;3.25;;;;;;;;;;5071946;28;20035;-64
2021/08/25 08:26:19;;;;;;;5.20;2.88;;;;;;;;;;5072132;28;20393;-63
2021/08/25 08:28:45;;;;;;;7.60;3.03;;;;;;;;;;5069673;28;20389;-64
2021/08/25 08:31:10;;;;;;;6.65;2.83;;;;;;;;;;5064202;28;20028;-64
2021/08/25 08:33:39;;;;;;;6.15;3.20;;;;;;;;;;5066919;28;20518;-70
2021/08/25 08:36:05;;;;;;;10.68;3.58;;;;;;;;;;5069992;28;20024;-65
2021/08/25 08:38:30;;;;;;;8.18;2.90;;;;;;;;;;5069665;28;20093;-68
2021/08/25 08:40:55;;;;;;;5.75;3.03;;;;;;;;;;5070865;28;20024;-68
2021/08/25 08:43:21;;;;;;;7.80;2.80;;;;;;;;;;5067142;28;20470;-67
2021/08/25 08:45:46;;;;;;;7.28;2.88;;;;;;;;;;5079727;28;20024;-67
2021/08/25 08:48:13;;;;;;;5.07;2.95;;;;;;;;;;5073352;28;20115;-68
2021/08/25 08:50:40;;;;;;;5.80;2.85;;;;;;;;;;5071196;28;20024;-67
2021/08/25 08:53:07;;;;;;;;;;;;;;;;;;5069710;28;20036;-69
2021/08/25 08:55:32;;;;;;;5.65;2.80;;;;;;;;;;5073239;28;20376;-70
2021/08/25 08:57:58;;;;;;;18.08;3.38;;;;;;;;;;5072439;28;20040;-67
2021/08/25 09:00:23;;;;;;;6.15;2.65;;;;;;;;;;5069115;28;20037;-66
2021/08/25 09:02:51;;;;;;;20.23;3.45;;;;;;;;;;5070574;28;20032;-67
2021/08/25 09:05:25;;;;;;;7.72;2.80;;;;;;;;;;5064429;28;20021;-67
2021/08/25 09:07:58;;;;;;;6.38;2.90;;;;;;;;;;5082840;28;20446;-64
2021/08/25 09:10:28;;;;;;;6.90;2.53;;;;;;;;;;5064886;28;20049;-65
2021/08/25 09:13:02;;;;;;;9.68;2.60;;;;;;;;;;5070169;28;20051;-67
2021/08/25 09:15:31;;;;;;;9.02;2.45;;;;;;;;;;5069394;28;20024;-67
2021/08/25 09:17:56;;;;;;;5.72;2.67;;;;;;;;;;5067007;28;20505;-67
2021/08/25 09:20:21;;;;;;;7.13;2.85;;;;;;;;;;5061669;28;20028;-68
2021/08/25 09:22:47;;;;;;;9.33;3.00;;;;;;;;;;4709567;28;10000561;-68
2021/08/25 09:25:49;;;;;;;7.22;2.80;;;;;;;;;;5063665;28;20043;-68
2021/08/25 09:28:18;;;;;;;7.88;2.70;;;;;;;;;;5042138;28;20098;-68
2021/08/25 09:30:50;;;;;;;5.43;2.50;;;;;;;;;;5079579;28;20452;-68
2021/08/25 09:33:16;;;;;;;9.38;2.92;;;;;;;;;;5061644;28;20426;-67
2021/08/25 09:35:43;;;;;;;4.38;2.47;;;;;;;;;;5066828;28;20392;-67
2021/08/25 09:38:15;;;;;;;;;;;;;;;;;;5060182;28;20060;-68
2021/08/25 09:40:55;;;;;;;9.07;2.70;;;;;;;;;;5072102;28;19979;-65
2021/08/25 09:43:37;;;;;;;8.85;2.70;;;;;;;;;;5059786;28;20032;-61
2021/08/25 09:46:03;;;;;;;6.45;2.60;;;;;;;;;;5060692;28;20021;-68
2021/08/25 09:48:52;;;;;;;7.72;2.55;;;;;;;;;;5065802;28;20055;-67
2021/08/25 09:51:19;;;;;;;5.43;2.70;;;;;;;;;;5065336;28;20033;-68
2021/08/25 09:53:47;;;;;;;3.83;2.55;;;;;;;;;;5064681;28;20028;-68
2021/08/25 09:56:34;;;;;;;6.35;2.70;;;;;;;;;;5060852;28;20090;-68
2021/08/25 09:59:03;;;;;;;11.10;3.20;;;;;;;;;;5058702;28;20064;-68
2021/08/25 10:01:29;;;;;;;6.85;3.15;;;;;;;;;;5065823;28;20424;-68
2021/08/25 10:03:55;;;;;;;5.50;2.20;;;;;;;;;;5066219;28;20032;-67
2021/08/25 10:06:25;;;;;;;6.70;2.78;;;;;;;;;;5060443;28;20067;-68
2021/08/25 10:08:51;;;;;;;8.50;3.22;;;;;;;;;;5062419;28;20043;-68
2021/08/25 10:11:28;;;;;;;4.93;2.83;;;;;;;;;;5065331;28;20029;-67
2021/08/25 10:13:54;;;;;;;6.68;2.50;;;;;;;;;;5066177;28;20025;-68
2021/08/25 10:16:45;;;;;;;5.38;2.92;;;;;;;;;;5066161;28;20486;-67
2021/08/25 10:19:37;;;;;;;5.22;2.30;;;;;;;;;;5064598;28;20024;-67
2021/08/25 10:22:15;;;;;;;5.25;2.33;;;;;;;;;;5065466;28;20020;-68
2021/08/25 10:24:55;;;;;;;5.05;2.70;;;;;;;;;;5063166;28;20078;-68
2021/08/25 10:27:22;;;;;;;6.35;2.92;;;;;;;;;;5067263;28;20539;-68
2021/08/25 10:30:04;;;;;;;3.60;2.40;;;;;;;;;;5065387;28;20071;-68
2021/08/25 10:32:34;;;;;;;8.15;2.83;;;;;;;;;;5065626;28;20035;-68
2021/08/25 10:35:32;;;;;;;5.00;2.65;;;;;;;;;;5065159;28;20060;-68
2021/08/25 10:38:27;;;;;;;8.02;2.55;;;;;;;;;;5086704;28;20516;-68
2021/08/25 10:41:00;;;;;;;6.18;2.75;;;;;;;;;;5083259;28;20266;-68
2021/08/25 10:43:40;;;;;;;5.07;2.35;;;;;;;;;;5065381;28;20036;-68
2021/08/25 10:46:06;;;;;;;5.35;2.67;;;;;;;;;;5066049;28;20020;-68
2021/08/25 10:48:37;;;;;;;5.30;2.67;;;;;;;;;;5066830;28;20067;-68
2021/08/25 10:51:02;;;;;;;6.10;2.88;;;;;;;;;;5065494;28;20024;-68
2021/08/25 10:53:28;;;;;;;5.50;2.85;;;;;;;;;;5063992;28;20303;-68
2021/08/25 10:56:20;;;;;;;4.63;2.78;;;;;;;;;;5066478;28;20040;-68
2021/08/25 10:58:54;;;;;;;4.07;2.60;;;;;;;;;;5064116;28;20055;-68
2021/08/25 11:01:29;;;;;;;3.88;2.78;;;;;;;;;;5060315;28;20025;-68
2021/08/25 11:03:56;;;;;;;5.82;2.83;;;;;;;;;;5066551;28;20033;-68
2021/08/25 11:06:39;;;;;;;5.63;3.03;;;;;;;;;;5079374;28;20020;-68
2021/08/25 11:09:20;;;;;;;7.45;2.70;;;;;;;;;;5087454;28;20034;-68
2021/08/25 11:11:49;;;;;;;5.90;2.88;;;;;;;;;;5087749;28;20012;-68
2021/08/25 11:14:19;;;;;;;5.97;3.17;;;;;;;;;;5089089;28;20031;-68
2021/08/25 11:16:45;;;;;;;6.68;3.08;;;;;;;;;;5090147;28;20431;-67
2021/08/25 11:19:28;;;;;;;5.47;3.50;;;;;;;;;;5090344;28;20032;-68
2021/08/25 11:21:55;;;;;;;6.43;2.63;;;;;;;;;;5088054;28;20111;-69
2021/08/25 11:24:20;;;;;;;6.07;3.05;;;;;;;;;;5070706;28;20033;-68
2021/08/25 11:26:46;;;;;;;4.53;2.97;;;;;;;;;;5051491;28;20040;-66
2021/08/25 11:29:22;;;;;;;4.55;2.85;;;;;;;;;;5051258;28;20033;-66
2021/08/25 11:31:50;;;;;;;6.35;2.97;;;;;;;;;;5052589;28;20024;-67
2021/08/25 11:34:17;;;;;;;5.55;3.08;;;;;;;;;;5074741;28;20117;-67
2021/08/25 11:36:53;;;;;;;4.65;2.90;;;;;;;;;;5088832;28;20043;-67
2021/08/25 11:39:18;;;;;;;6.30;3.00;;;;;;;;;;5093822;28;20397;-67
2021/08/25 11:41:47;;;;;;;5.13;2.75;;;;;;;;;;5093731;28;20028;-67
2021/08/25 11:44:13;;;;;;;5.78;3.03;;;;;;;;;;5092517;28;20414;-67
2021/08/25 11:46:38;;;;;;;4.85;2.90;;;;;;;;;;5079395;28;20024;-67
2021/08/25 11:49:04;;;;;;;4.47;2.53;;;;;;;;;;5074018;28;20036;-67
2021/08/25 11:51:30;;;;;;;4.88;2.80;;;;;;;;;;5072959;28;20024;-68
2021/08/25 11:53:55;;;;;;;5.03;2.80;;;;;;;;;;5072866;28;20024;-67
2021/08/25 11:56:21;;;;;;;3.85;2.50;;;;;;;;;;5073290;28;20104;-67
2021/08/25 11:58:47;;;;;;;6.95;2.90;;;;;;;;;;5073636;28;20473;-68
2021/08/25 12:01:21;;;;;;;5.40;2.92;;;;;;;;;;5072660;28;20038;-68
2021/08/25 12:03:46;;;;;;;6.25;3.03;;;;;;;;;;5072960;28;20074;-67
2021/08/25 12:06:15;;;;;;;5.30;2.78;;;;;;;;;;5084815;28;20024;-69
2021/08/25 12:08:42;;;;;;;6.45;3.10;;;;;;;;;;5093742;28;20031;-68
2021/08/25 12:11:09;;;;;;;6.60;3.08;;;;;;;;;;5080505;28;20082;-68
2021/08/25 12:13:36;;;;;;;5.35;3.35;;;;;;;;;;5066150;28;20079;-68
2021/08/25 12:16:10;;;;;;;6.35;3.00;;;;;;;;;;5073794;28;20040;-68
2021/08/25 12:18:54;;;;;;;4.85;2.95;;;;;;;;;;5072160;28;20562;-68
2021/08/25 12:21:20;;;;;;;5.63;2.83;;;;;;;;;;5071007;28;20077;-69
2021/08/25 12:24:11;;;;;;;3.80;2.85;;;;;;;;;;5069238;28;20017;-68
2021/08/25 12:26:54;;;;;;;4.95;2.83;;;;;;;;;;5065550;28;20033;-68
2021/08/25 12:29:28;;;;;;;4.95;2.92;;;;;;;;;;5072844;28;20016;-68
2021/08/25 12:32:00;;;;;;;4.20;2.88;;;;;;;;;;5073121;28;20389;-69
2021/08/25 12:34:26;;;;;;;6.53;3.28;;;;;;;;;;5072672;28;20033;-68
2021/08/25 12:36:53;;;;;;;5.75;3.10;;;;;;;;;;5088590;28;20024;-68
2021/08/25 12:39:22;;;;;;;;;;;;;;;;;;5066572;28;20039;-68
2021/08/25 12:41:49;;;;;;;5.43;3.13;;;;;;;;;;5071675;28;20698;-68
2021/08/25 12:44:17;;;;;;;6.75;3.10;;;;;;;;;;5072618;28;20054;-68
2021/08/25 12:46:54;;;;;;;6.35;2.90;;;;;;;;;;5070343;28;20027;-68
2021/08/25 12:49:24;;;;;;;3.90;2.72;;;;;;;;;;5068913;28;20542;-68
2021/08/25 12:51:50;;;;;;;4.63;2.60;;;;;;;;;;5073338;28;20059;-68
2021/08/25 12:54:16;;;;;;;4.82;2.88;;;;;;;;;;5071325;28;20055;-68
2021/08/25 12:56:42;;;;;;;4.07;2.83;;;;;;;;;;5072302;28;20039;-68
2021/08/25 12:59:07;;;;;;;7.00;3.08;;;;;;;;;;5072689;28;20032;-68
2021/08/25 13:01:32;;;;;;;4.10;2.67;;;;;;;;;;5074212;28;20432;-68
2021/08/25 13:03:58;;;;;;;4.63;2.87;;;;;;;;;;5073054;28;20469;-69
2021/08/25 13:06:23;;;;;;;4.97;3.00;;;;;;;;;;5083392;28;20378;-68
2021/08/25 13:08:48;;;;;;;6.60;3.10;;;;;;;;;;5091608;28;20389;-68
2021/08/25 13:11:14;;;;;;;4.85;3.10;;;;;;;;;;5090759;28;20031;-68
2021/08/25 13:13:39;;;;;;;5.13;3.10;;;;;;;;;;5091231;28;20173;-67
2021/08/25 13:16:05;;;;;;;5.30;3.15;;;;;;;;;;5089953;28;20042;-68
2021/08/25 13:18:30;;;;;;;4.60;3.25;;;;;;;;;;5091581;28;20095;-69
2021/08/25 13:20:55;;;;;;;7.07;3.10;;;;;;;;;;5091238;28;20469;-68
2021/08/25 13:23:25;;;;;;;6.28;3.00;;;;;;;;;;4540928;28;10001828;-68
2021/08/25 13:25:51;;;;;;;3.85;2.78;;;;;;;;;;4704759;28;9999856;-68
2021/08/25 13:28:16;;;;;;;6.38;2.80;;;;;;;;;;5050148;28;20024;-69
2021/08/25 13:30:41;;;;;;;5.32;2.92;;;;;;;;;;5052999;28;20025;-68
2021/08/25 13:33:06;;;;;;;3.80;2.50;;;;;;;;;;5065583;28;20787;-68
2021/08/25 13:35:32;;;;;;;6.25;3.05;;;;;;;;;;5076452;28;20527;-68
2021/08/25 13:37:58;;;;;;;4.80;2.80;;;;;;;;;;5070311;28;20034;-68
2021/08/25 13:40:23;;;;;;;3.75;2.92;;;;;;;;;;5069774;28;20753;-68
2021/08/25 13:42:48;;;;;;;5.03;3.10;;;;;;;;;;5077199;28;20024;-68
2021/08/25 13:45:14;;;;;;;5.20;3.00;;;;;;;;;;5068501;28;20114;-69
2021/08/25 13:47:39;;;;;;;4.97;3.00;;;;;;;;;;5060744;28;20040;-69
2021/08/25 13:50:07;;;;;;;6.57;3.00;;;;;;;;;;5047446;28;20032;-68
2021/08/25 13:52:32;;;;;;;4.97;2.83;;;;;;;;;;5050415;28;20029;-68
2021/08/25 13:54:57;;;;;;;5.13;3.17;;;;;;;;;;5049790;28;20028;-68
2021/08/25 13:57:23;;;;;;;4.43;2.80;;;;;;;;;;5057724;28;20040;-68
2021/08/25 13:59:50;;;;;;;4.53;2.85;;;;;;;;;;4706397;28;9999691;-68
2021/08/25 14:02:16;;;;;;;4.80;2.60;;;;;;;;;;5052491;28;20095;-66
2021/08/25 14:04:41;;;;;;;4.60;2.77;;;;;;;;;;5057594;28;20562;-68
2021/08/25 14:07:07;;;;;;;5.90;3.47;;;;;;;;;;5055489;28;20266;-68
2021/08/25 14:09:32;;;;;;;4.78;2.75;;;;;;;;;;5054174;28;20390;-68
2021/08/25 14:11:57;;;;;;;4.47;2.60;;;;;;;;;;5053433;28;20063;-68
2021/08/25 14:14:22;;;;;;;4.47;2.85;;;;;;;;;;5056271;28;20032;-70
2021/08/25 14:16:48;;;;;;;5.70;3.03;;;;;;;;;;5056638;28;20035;-69
2021/08/25 14:19:13;;;;;;;7.30;2.95;;;;;;;;;;5054727;28;20035;-69
2021/08/25 14:21:38;;;;;;;5.28;2.97;;;;;;;;;;5054719;28;20333;-69
2021/08/25 14:24:07;;;;;;;5.13;3.15;;;;;;;;;;5058709;28;20176;-67
2021/08/25 14:26:33;;;;;;;5.43;2.92;;;;;;;;;;5054553;28;20490;-68
2021/08/25 14:28:59;;;;;;;4.35;2.63;;;;;;;;;;5055370;28;20025;-69
2021/08/25 14:31:25;;;;;;;5.65;2.88;;;;;;;;;;5054574;28;20040;-69
2021/08/25 14:33:50;;;;;;;6.03;3.45;;;;;;;;;;5055087;28;20053;-68
2021/08/25 14:36:17;;;;;;;4.63;2.87;;;;;;;;;;5055292;28;20025;-68
2021/08/25 14:38:42;;;;;;;5.55;3.00;;;;;;;;;;5055943;28;20033;-68
2021/08/25 14:41:07;;;;;;;5.38;3.28;;;;;;;;;;5054241;28;20047;-69
2021/08/25 14:43:33;;;;;;;5.35;3.25;;;;;;;;;;5054044;28;20035;-68
2021/08/25 14:45:58;;;;;;;5.05;3.17;;;;;;;;;;5058813;28;20025;-68